Villafranca de los Caballeros, Spain
Current Conditions -  °F | °C
As of 3:00 PM on Thursday 30 Oct 2014 (Local Time) from LEAO Reporting Station
Clear Clear  
Wind Chill: 77°   Ceiling: Unl
Heat Index: 78°   Visibility: 6mi
Dew Point: 43°   Wind: 3mph
Humidity: 29%   Direction: NA
Pressure: 30.15"   Gusts: NA
Location:  39.43°N, 3.36°W
Report Text: LEAO 301400Z VRB03KT CAVOK 25/06 Q1021
Loading
Personal Weather Stations






























Interactive Weather Map
Tropical Storm Tracking
New forecast layout! Learn more

10-Day Weather Forecast

Advertisements
Track Severe Weather on mobile